Terminal Aerodrome Forecast
Issued by NWS

Home | Current Version | Previous Version | Text Only | Print | Product List | Glossary On
Versions: 1 2 3 4 5 6 7 8 9 10 11 12 13 14 15 16 17 18 19 20 21 22
000
FTUS44 KBMX 011449 AAB
TAFEET
TAF AMD
KEET 011449Z 0115/0212 23004KT P6SM BKN008
     FM011630 24007KT P6SM BKN020
     FM011800 25009KT P6SM VCTS BKN040CB
     FM020200 23005KT P6SM OVC200=

USA.gov is the U.S. government's official web portal to all federal, state and local government web resources and services.